• Join FlightAware (Why Join?)
  • Login
  • US Flag 
03:27PM EST


 

Airport Tracker/Info


-or-


 

Live Flight TrackerFlight Track Log ✈ N472ER ✈ 10-Jun-2013 ✈ KDAB - KVRB

Flight Track Log - Related Links

Times and Time Zones

All times are in EDT time to prevent confusion due to time zone crossing. See the N472ER flight status page for this flight to view local times or setup timezone preferences in your user account.

Time Position Orientation Groundspeed Altitude Reporting Facility
EDT Latitude Longitude Course Direction KTS MPH feet Rate Location/Type
07:46AM 28.9167 -80.9333 160° South 94 108 3,000  Level Orlando TRACON
07:47AM 28.9000 -80.9333 180° South 95 109 3,000  Level Orlando TRACON
07:48AM 28.8667 -80.9167 156° South 93 107 3,100  Climbing Orlando TRACON
07:49AM 28.8500 -80.9167 180° South 95 109 3,100 -60 Level Orlando TRACON
07:50AM 28.8167 -80.9000 156° South 95 109 3,000 -60 Descending Orlando TRACON
07:52AM 29.1519 -81.0461 160° South  Level Estimated
07:52AM 28.7833 -80.9000 180° South 94 108 3,000  Level Orlando TRACON
07:52AM 28.7667 -80.9000 180° South 94 108 3,000  Level Orlando TRACON
07:54AM 28.7333 -80.8833 156° South 98 113 3,100  Climbing Orlando TRACON
07:55AM 28.7167 -80.8833 180° South 96 110 3,100 -60 Level Orlando TRACON
07:56AM 28.6833 -80.8833 180° South 103 119 3,000  Descending Orlando TRACON
07:57AM 28.6667 -80.8667 139° Southeast 94 108 3,100  Climbing Orlando TRACON
07:58AM 28.6333 -80.8500 156° South 97 112 3,100  Level Orlando TRACON
07:59AM 28.6000 -80.8500 180° South 99 114 3,100  Level Orlando TRACON
08:00AM 28.5833 -80.8500 180° South 102 117 3,100  Level Orlando TRACON
08:01AM 28.5500 -80.8500 180° South 95 109 3,100  Level Orlando TRACON
08:01AM 28.5333 -80.8333 139° Southeast 95 109 3,100  Level Orlando TRACON
08:03AM 28.5000 -80.8333 180° South 98 113 3,100  Level Orlando TRACON
08:04AM 28.4667 -80.8167 156° South 99 114 3,100  Level Orlando TRACON
08:05AM 28.4500 -80.8167 180° South 99 114 3,100 -60 Level Orlando TRACON
08:06AM 28.4167 -80.8000 156° South 101 116 3,000 -60 Descending Orlando TRACON
08:07AM 28.3833 -80.7833 156° South 96 110 3,000  Level Orlando TRACON
08:08AM 28.3667 -80.7833 180° South 93 107 3,100  Climbing Orlando TRACON
08:08AM 28.3500 -80.7667 139° Southeast 94 108 3,100  Level Orlando TRACON
08:10AM 28.3067 -80.7428 154° Southeast 102 117 3,100  Level Miami Center
08:11AM 28.2775 -80.7322 162° South 102 117 3,100  Level Miami Center
08:12AM 28.2531 -80.7197 156° South 102 117 3,100  Level Miami Center
08:13AM 28.2261 -80.7117 165° South 102 117 3,100  Level Miami Center
08:14AM 28.2031 -80.7061 168° South 102 117 3,100  Level Miami Center
08:15AM 28.1742 -80.7028 174° South 102 117 3,100  Level Miami Center
08:16AM 28.1469 -80.6994 174° South 102 117 3,100  Level Miami Center
08:17AM 28.1200 -80.6961 174° South 102 117 3,100 -60 Level Miami Center
08:18AM 28.0972 -80.6861 159° South 102 117 3,000 -60 Descending Miami Center
08:19AM 28.0747 -80.6711 150° Southeast 102 117 3,000  Level Miami Center
08:20AM 28.0522 -80.6492 139° Southeast 102 117 3,000  Level Miami Center
08:21AM 28.0278 -80.6319 148° Southeast 97 112 3,000  Level Miami Center
08:22AM 28.0053 -80.6125 143° Southeast 102 117 3,000  Level Miami Center
08:23AM 27.9847 -80.6022 156° South 102 117 3,100  Climbing Miami Center
08:24AM 27.9619 -80.5897 154° Southeast 96 110 3,000 -60 Descending Miami Center
08:25AM 27.9333 -80.5747 155° Southeast 96 110 3,000  Level Miami Center
08:26AM 27.9106 -80.5622 154° Southeast 96 110 3,000  Level Miami Center
08:27AM 27.8836 -80.5544 166° South 96 110 3,100  Climbing Miami Center
08:28AM 27.8631 -80.5419 152° Southeast 96 110 3,100 -60 Level Miami Center
08:29AM 27.8342 -80.5269 155° Southeast 96 110 3,000 -60 Descending Miami Center
08:30AM 27.8094 -80.5167 160° South 96 110 3,000 -360 Level Miami Center
08:31AM 27.7869 -80.4950 140° Southeast 96 110 2,300  Descending Miami Center
08:32AM 27.7686 -80.4825 149° Southeast 96 110 3,000 660 Climbing Miami Center